Time;durP1;ratioP1;P1;durP2;ratioP2;P2;SDS_P1;SDS_P2;PMS_P1;PMS_P2;Temp;Humidity;BMP_temperature;BMP_pressure;BME280_temperature;BME280_humidity;BME280_pressure;Samples;Min_cycle;Max_cycle;Signal;HPM_P1;HPM_P2
2022/11/02 00:00:13;;;;;;;4.23;3.77;;;10.70;99.90;;;;;;5053856;28;20442;-50
2022/11/02 00:02:40;;;;;;;4.60;2.93;;;10.80;99.90;;;;;;5053370;28;20530;-47
2022/11/02 00:05:11;;;;;;;4.40;3.07;;;10.60;99.90;;;;;;5053164;28;20503;-47
2022/11/02 00:07:38;;;;;;;4.60;3.50;;;10.50;99.90;;;;;;5053135;28;20443;-49
2022/11/02 00:10:06;;;;;;;3.90;3.23;;;10.20;99.90;;;;;;5052958;28;20444;-48
2022/11/02 00:12:33;;;;;;;5.97;3.20;;;10.40;99.90;;;;;;5053257;28;20477;-47
2022/11/02 00:15:00;;;;;;;5.30;3.17;;;10.60;99.90;;;;;;5052863;28;20553;-47
2022/11/02 00:17:28;;;;;;;4.80;3.00;;;10.70;99.90;;;;;;5053064;28;20447;-48
2022/11/02 00:19:54;;;;;;;4.53;3.17;;;10.70;99.90;;;;;;5053158;28;20513;-49
2022/11/02 00:22:23;;;;;;;7.20;3.60;;;10.70;99.90;;;;;;5053097;28;20524;-47
2022/11/02 00:24:50;;;;;;;4.80;4.27;;;10.60;99.90;;;;;;5052694;28;20552;-47
2022/11/02 00:27:17;;;;;;;6.60;4.07;;;10.70;99.90;;;;;;5052971;28;20443;-47
2022/11/02 00:29:44;;;;;;;6.13;3.23;;;10.70;99.90;;;;;;5052442;28;20572;-48
2022/11/02 00:32:10;;;;;;;4.00;3.03;;;10.70;99.90;;;;;;5052510;28;20541;-47
2022/11/02 00:34:38;;;;;;;4.03;2.53;;;10.60;99.90;;;;;;5052018;28;20548;-50
2022/11/02 00:37:04;;;;;;;3.90;2.90;;;10.50;99.90;;;;;;5052599;28;20463;-47
2022/11/02 00:39:33;;;;;;;6.47;2.70;;;10.60;99.90;;;;;;5052664;28;20450;-47
2022/11/02 00:41:59;;;;;;;4.30;3.30;;;10.80;99.90;;;;;;5052439;28;20442;-47
2022/11/02 00:44:26;;;;;;;8.87;3.27;;;9.90;99.90;;;;;;5052443;28;20467;-47
2022/11/02 00:46:53;;;;;;;4.50;3.30;;;10.10;99.90;;;;;;5052471;28;20942;-48
2022/11/02 00:49:20;;;;;;;3.03;2.63;;;10.30;99.90;;;;;;5052463;28;20478;-47
2022/11/02 00:51:47;;;;;;;4.10;3.00;;;10.40;99.90;;;;;;5052413;28;20531;-48
2022/11/02 00:54:13;;;;;;;4.80;2.90;;;10.50;99.90;;;;;;5051879;28;20840;-47
2022/11/02 00:56:42;;;;;;;4.47;3.37;;;10.40;99.90;;;;;;5052200;28;20533;-47
2022/11/02 00:59:08;;;;;;;5.37;3.23;;;10.40;99.90;;;;;;5052058;28;20525;-47
2022/11/02 01:01:35;;;;;;;4.10;2.67;;;10.60;99.90;;;;;;5052031;28;20477;-49
2022/11/02 01:04:02;;;;;;;6.30;3.30;;;10.50;99.90;;;;;;5051766;28;20470;-47
2022/11/02 01:06:29;;;;;;;6.07;3.27;;;9.90;99.90;;;;;;5052197;28;20608;-47
2022/11/02 01:08:56;;;;;;;5.53;3.27;;;10.00;99.90;;;;;;5051430;28;20569;-47
2022/11/02 01:11:24;;;;;;;3.23;2.83;;;10.10;99.90;;;;;;5052183;28;20528;-47
2022/11/02 01:13:53;;;;;;;4.73;3.23;;;10.30;99.90;;;;;;5051648;28;20477;-47
2022/11/02 01:16:20;;;;;;;5.63;3.17;;;10.50;99.90;;;;;;5052093;28;20453;-47
2022/11/02 01:18:50;;;;;;;4.07;2.50;;;10.40;99.90;;;;;;5052165;28;20529;-48
2022/11/02 01:21:17;;;;;;;5.93;3.47;;;10.30;99.90;;;;;;5052032;28;20532;-48
2022/11/02 01:23:44;;;;;;;4.40;3.60;;;10.30;99.90;;;;;;5051482;28;20540;-47
2022/11/02 01:26:11;;;;;;;5.90;3.13;;;10.60;99.90;;;;;;5051979;28;20442;-49
2022/11/02 01:28:39;;;;;;;3.80;3.30;;;10.70;99.90;;;;;;5051446;28;20935;-47
2022/11/02 01:31:08;;;;;;;3.90;2.63;;;10.60;99.90;;;;;;5052135;28;20441;-48
2022/11/02 01:33:35;;;;;;;3.93;2.70;;;10.30;99.90;;;;;;5050896;28;20446;-47
2022/11/02 01:36:03;;;;;;;4.53;2.60;;;9.90;99.90;;;;;;5051058;28;20545;-47
2022/11/02 01:38:31;;;;;;;5.77;2.67;;;9.90;99.90;;;;;;5051985;28;20866;-48
2022/11/02 01:40:58;;;;;;;5.30;3.30;;;9.80;99.90;;;;;;5051745;28;20524;-47
2022/11/02 01:43:27;;;;;;;3.07;2.40;;;9.70;99.90;;;;;;5051285;28;20525;-47
2022/11/02 01:45:58;;;;;;;5.57;3.87;;;10.00;99.90;;;;;;5051425;28;20541;-50
2022/11/02 01:48:31;;;;;;;6.97;3.43;;;10.10;99.90;;;;;;5051418;28;20568;-47
2022/11/02 01:51:02;;;;;;;5.50;2.50;;;10.30;99.90;;;;;;5051451;28;20934;-48
2022/11/02 01:53:30;;;;;;;5.63;3.10;;;10.30;99.90;;;;;;5051378;28;20488;-47
2022/11/02 01:55:57;;;;;;;8.70;3.37;;;10.30;99.90;;;;;;5052600;28;20557;-48
2022/11/02 01:58:24;;;;;;;5.47;3.23;;;10.00;99.90;;;;;;5051507;28;21004;-47
2022/11/02 02:00:51;;;;;;;4.63;3.10;;;10.10;99.90;;;;;;5051750;28;20541;-50
2022/11/02 02:03:20;;;;;;;4.23;2.70;;;10.20;99.90;;;;;;5050444;28;21018;-47
2022/11/02 02:05:53;;;;;;;4.90;3.03;;;10.20;99.90;;;;;;5051152;28;20553;-47
2022/11/02 02:08:22;;;;;;;4.20;2.87;;;10.20;99.90;;;;;;5051135;28;20860;-48
2022/11/02 02:10:49;;;;;;;4.53;2.60;;;10.30;99.90;;;;;;5050953;28;20447;-47
2022/11/02 02:13:17;;;;;;;7.13;3.60;;;10.10;99.90;;;;;;5050861;28;20557;-49
2022/11/02 02:15:50;;;;;;;5.87;3.20;;;10.20;99.90;;;;;;5051486;28;20490;-49
2022/11/02 02:18:24;;;;;;;5.93;2.90;;;10.30;99.90;;;;;;5051118;28;20447;-47
2022/11/02 02:21:11;;;;;;;5.80;3.93;;;10.30;99.90;;;;;;5051315;28;20441;-47
2022/11/02 02:23:53;;;;;;;8.53;3.60;;;9.90;99.90;;;;;;5050764;28;20529;-47
2022/11/02 02:26:47;;;;;;;6.97;3.67;;;9.60;99.90;;;;;;5051102;28;20528;-50
2022/11/02 02:29:21;;;;;;;5.60;3.30;;;9.50;99.90;;;;;;5051037;28;20564;-47
2022/11/02 02:31:58;;;;;;;4.63;3.20;;;9.50;99.90;;;;;;5050974;28;20528;-48
2022/11/02 02:34:31;;;;;;;5.20;3.23;;;9.70;99.90;;;;;;5050768;28;20839;-47
2022/11/02 02:37:05;;;;;;;6.30;4.00;;;9.60;99.90;;;;;;5051205;28;20477;-47
2022/11/02 02:39:41;;;;;;;5.73;3.30;;;9.20;99.90;;;;;;5050907;28;20480;-47
2022/11/02 02:42:12;;;;;;;6.47;3.57;;;9.20;99.90;;;;;;5051271;28;20473;-49
2022/11/02 02:44:47;;;;;;;5.70;3.13;;;9.40;99.90;;;;;;5050689;28;20484;-47
2022/11/02 02:47:18;;;;;;;7.23;3.27;;;9.60;99.90;;;;;;5051049;28;20464;-48
2022/11/02 02:49:52;;;;;;;3.97;2.53;;;9.60;99.90;;;;;;5050854;28;20559;-47
2022/11/02 02:52:22;;;;;;;5.40;3.00;;;9.70;99.90;;;;;;5050690;28;20532;-47
2022/11/02 02:54:52;;;;;;;4.50;2.90;;;9.70;99.90;;;;;;5050461;28;20518;-47
2022/11/02 02:57:22;;;;;;;3.63;2.70;;;9.70;99.90;;;;;;5050753;28;20948;-48
2022/11/02 02:59:50;;;;;;;4.17;2.40;;;9.50;99.90;;;;;;5051011;28;20537;-51
2022/11/02 03:02:21;;;;;;;3.40;3.10;;;9.60;99.90;;;;;;5050607;28;20899;-49
2022/11/02 03:04:48;;;;;;;3.33;2.50;;;9.70;99.90;;;;;;5050231;28;20554;-49
2022/11/02 03:07:19;;;;;;;5.60;3.07;;;9.90;99.90;;;;;;5050762;28;20548;-47
2022/11/02 03:09:51;;;;;;;8.20;2.90;;;9.70;99.90;;;;;;5050492;28;20482;-47
2022/11/02 03:12:28;;;;;;;11.13;3.20;;;9.40;99.90;;;;;;5051072;28;20481;-47
2022/11/02 03:15:07;;;;;;;4.67;2.57;;;9.30;99.90;;;;;;5050490;28;20545;-47
2022/11/02 03:17:46;;;;;;;4.50;2.83;;;9.30;99.90;;;;;;5053997;28;20430;-47
2022/11/02 03:20:21;;;;;;;3.43;2.40;;;9.40;99.90;;;;;;5054277;28;20532;-48
2022/11/02 03:22:56;;;;;;;3.53;2.00;;;9.60;99.90;;;;;;5054123;28;20442;-47
2022/11/02 03:25:29;;;;;;;6.87;2.70;;;9.40;99.90;;;;;;5054217;28;20557;-47
2022/11/02 03:28:00;;;;;;;4.37;3.10;;;9.40;99.90;;;;;;5053820;28;20446;-49
2022/11/02 03:30:33;;;;;;;3.70;2.43;;;9.50;99.90;;;;;;5053960;28;20981;-47
2022/11/02 03:33:07;;;;;;;5.90;2.87;;;9.50;99.90;;;;;;5053796;28;20532;-47
2022/11/02 03:35:39;;;;;;;3.20;2.63;;;9.60;99.90;;;;;;5053511;28;20509;-47
2022/11/02 03:38:13;;;;;;;7.33;2.60;;;9.80;99.90;;;;;;5054093;28;20469;-47
2022/11/02 03:40:43;;;;;;;3.67;2.47;;;9.80;99.90;;;;;;5054142;28;20520;-47
2022/11/02 03:43:12;;;;;;;4.90;3.10;;;9.70;99.90;;;;;;5053598;28;20536;-47
2022/11/02 03:45:43;;;;;;;3.87;2.80;;;9.70;99.90;;;;;;5053554;28;20464;-47
2022/11/02 03:48:12;;;;;;;4.03;2.73;;;9.70;99.90;;;;;;5053599;28;20532;-47
2022/11/02 03:50:44;;;;;;;4.20;2.60;;;9.60;99.90;;;;;;5053649;28;20556;-47
2022/11/02 03:53:16;;;;;;;4.53;2.90;;;9.70;99.90;;;;;;5053934;28;20441;-47
2022/11/02 03:55:54;;;;;;;7.93;2.40;;;9.70;99.90;;;;;;5053321;28;20492;-47
2022/11/02 03:58:21;;;;;;;6.70;2.57;;;9.50;99.90;;;;;;5052891;28;20524;-47
2022/11/02 04:00:53;;;;;;;4.40;3.67;;;9.60;99.90;;;;;;5053425;28;20447;-49
2022/11/02 04:03:23;;;;;;;5.73;3.50;;;9.60;99.90;;;;;;5053145;28;20621;-47
2022/11/02 04:05:50;;;;;;;6.23;3.30;;;9.60;99.90;;;;;;5053462;28;20552;-47
2022/11/02 04:08:23;;;;;;;4.93;2.60;;;9.60;99.90;;;;;;5053462;28;20537;-49
2022/11/02 04:16:22;;;;;;;5.10;3.77;;;9.30;99.90;;;;;;5053466;28;20416;-48
2022/11/02 04:21:33;;;;;;;5.43;4.90;;;9.30;99.90;;;;;;5053144;28;20428;-47
2022/11/02 04:26:45;;;;;;;4.00;3.43;;;9.10;99.90;;;;;;5052495;28;20416;-47
2022/11/02 04:29:12;;;;;;;6.03;3.37;;;9.00;99.90;;;;;;5053073;28;20576;-50
2022/11/02 04:31:40;;;;;;;3.30;3.00;;;9.10;99.90;;;;;;5052973;28;20524;-47
2022/11/02 04:34:06;;;;;;;6.70;3.03;;;9.20;99.90;;;;;;5051900;28;21065;-47
2022/11/02 04:36:33;;;;;;;5.00;3.13;;;9.30;99.90;;;;;;5052658;28;20528;-47
2022/11/02 04:38:59;;;;;;;6.63;3.50;;;9.30;99.90;;;;;;5052713;28;20289;-47
2022/11/02 04:41:44;;;;;;;6.00;3.47;;;9.20;99.90;;;;;;5053066;28;20533;-47
2022/11/02 04:44:13;;;;;;;5.03;3.60;;;8.30;99.90;;;;;;5052435;28;20703;-48
2022/11/02 04:46:42;;;;;;;7.27;3.57;;;8.20;99.90;;;;;;5052946;28;20453;-47
2022/11/02 04:49:10;;;;;;;5.17;3.60;;;8.50;99.90;;;;;;5052482;28;20495;-50
2022/11/02 04:51:39;;;;;;;5.43;3.30;;;8.20;99.90;;;;;;5052374;28;20643;-47
2022/11/02 04:54:06;;;;;;;6.30;3.53;;;8.50;99.90;;;;;;5051691;28;20466;-47
2022/11/02 04:56:33;;;;;;;6.30;2.70;;;8.60;99.90;;;;;;5052486;28;20525;-47
2022/11/02 04:59:00;;;;;;;5.67;2.80;;;8.70;99.90;;;;;;5052358;28;20438;-48
2022/11/02 05:01:29;;;;;;;4.73;2.80;;;8.80;99.90;;;;;;5052048;28;20528;-47
2022/11/02 05:03:57;;;;;;;8.80;5.97;;;8.90;99.90;;;;;;5052027;28;20540;-47
2022/11/02 05:06:24;;;;;;;6.30;5.37;;;9.00;99.90;;;;;;5052459;28;20519;-47
2022/11/02 05:08:51;;;;;;;11.27;5.17;;;9.00;99.90;;;;;;5051855;28;20526;-46
2022/11/02 05:11:19;;;;;;;4.97;4.13;;;9.10;99.90;;;;;;5051764;28;20578;-47
2022/11/02 05:13:46;;;;;;;4.90;4.40;;;9.40;99.90;;;;;;5051999;28;20444;-47
2022/11/02 05:16:14;;;;;;;13.13;6.40;;;9.40;99.90;;;;;;5052040;28;20438;-49
2022/11/02 05:18:41;;;;;;;7.43;4.07;;;9.10;99.90;;;;;;5052084;28;20545;-49
2022/11/02 05:21:11;;;;;;;20.13;15.50;;;8.40;99.90;;;;;;5051980;28;20487;-47
2022/11/02 05:23:39;;;;;;;16.70;11.67;;;8.60;99.90;;;;;;5051359;28;20805;-47
2022/11/02 05:26:09;;;;;;;17.03;10.70;;;8.90;99.90;;;;;;5051823;28;20540;-48
2022/11/02 05:28:35;;;;;;;7.57;5.47;;;9.00;99.90;;;;;;5051978;28;20525;-50
2022/11/02 05:31:03;;;;;;;5.90;3.90;;;9.10;99.90;;;;;;5051689;28;20503;-47
2022/11/02 05:33:30;;;;;;;8.17;4.10;;;9.10;99.90;;;;;;5051440;28;20481;-50
2022/11/02 05:35:58;;;;;;;10.20;5.07;;;9.10;99.90;;;;;;5051580;28;20549;-46
2022/11/02 05:38:27;;;;;;;5.60;4.53;;;9.20;99.90;;;;;;5051039;28;20481;-47
2022/11/02 05:40:54;;;;;;;7.23;6.30;;;9.10;99.90;;;;;;5051645;28;20533;-47
2022/11/02 05:43:21;;;;;;;8.87;7.60;;;9.10;99.90;;;;;;5051568;28;20934;-47
2022/11/02 05:45:53;;;;;;;4.90;4.33;;;9.20;99.90;;;;;;5051278;28;20465;-46
2022/11/02 05:48:20;;;;;;;4.77;4.37;;;9.40;99.90;;;;;;5051564;28;20471;-47
2022/11/02 05:50:47;;;;;;;6.17;3.67;;;9.30;99.90;;;;;;5051425;28;20568;-47
2022/11/02 05:53:14;;;;;;;4.40;2.87;;;9.10;99.90;;;;;;5051069;28;20823;-47
2022/11/02 05:55:42;;;;;;;4.60;4.07;;;9.30;99.90;;;;;;5051333;28;20994;-47
2022/11/02 05:58:09;;;;;;;12.57;5.10;;;8.40;99.90;;;;;;5051103;28;20529;-47
2022/11/02 06:00:36;;;;;;;4.30;3.70;;;8.70;99.90;;;;;;5051114;28;20443;-50
2022/11/02 06:03:02;;;;;;;6.30;5.70;;;8.00;99.90;;;;;;5051294;28;20452;-47
2022/11/02 06:05:29;;;;;;;9.50;5.10;;;8.00;99.90;;;;;;5051038;28;21047;-47
2022/11/02 06:08:00;;;;;;;5.87;5.13;;;8.20;99.90;;;;;;5051279;28;20892;-49
2022/11/02 06:10:27;;;;;;;5.83;4.60;;;8.40;99.90;;;;;;5050723;28;20564;-47
2022/11/02 06:12:57;;;;;;;7.07;4.47;;;8.40;99.90;;;;;;5050795;28;20532;-48
2022/11/02 06:15:24;;;;;;;8.10;4.13;;;8.50;99.90;;;;;;5050860;28;20549;-47
2022/11/02 06:17:51;;;;;;;9.13;3.87;;;8.50;99.90;;;;;;5051069;28;20541;-47
2022/11/02 06:20:19;;;;;;;8.13;3.57;;;8.70;99.90;;;;;;5051292;28;20520;-49
2022/11/02 06:22:46;;;;;;;3.83;2.83;;;8.90;99.90;;;;;;5050915;28;20445;-47
2022/11/02 06:25:13;;;;;;;6.60;2.93;;;9.00;99.90;;;;;;5050721;28;20556;-47
2022/11/02 06:27:41;;;;;;;4.70;3.80;;;8.90;99.90;;;;;;5051072;28;20481;-47
2022/11/02 06:30:11;;;;;;;6.10;3.43;;;8.80;99.90;;;;;;5050803;28;20899;-47
2022/11/02 06:32:37;;;;;;;13.03;7.40;;;8.90;99.90;;;;;;5051109;28;20517;-49
2022/11/02 06:35:05;;;;;;;13.30;8.07;;;9.10;99.90;;;;;;5050347;28;20461;-47
2022/11/02 06:37:34;;;;;;;12.50;8.03;;;8.80;99.90;;;;;;5050930;28;20536;-50
2022/11/02 06:40:01;;;;;;;16.63;10.13;;;8.70;99.90;;;;;;5050896;28;20433;-47
2022/11/02 06:42:28;;;;;;;11.90;7.73;;;8.90;99.90;;;;;;5051121;28;20456;-47
2022/11/02 06:45:01;;;;;;;11.77;7.47;;;9.20;99.90;;;;;;5050370;28;20465;-48
2022/11/02 06:47:31;;;;;;;9.43;6.50;;;9.30;99.90;;;;;;5050935;28;20456;-47
2022/11/02 06:49:59;;;;;;;11.97;5.93;;;9.20;99.90;;;;;;5051932;28;20678;-47
2022/11/02 06:52:25;;;;;;;8.60;5.93;;;9.20;99.90;;;;;;5054469;28;20548;-47
2022/11/02 06:54:52;;;;;;;6.20;5.43;;;9.00;99.90;;;;;;5053951;28;20993;-47
2022/11/02 06:57:19;;;;;;;6.60;5.77;;;9.10;99.90;;;;;;5054487;28;20608;-49
2022/11/02 06:59:46;;;;;;;6.80;5.00;;;9.20;99.90;;;;;;5054429;28;21029;-47
2022/11/02 07:02:13;;;;;;;8.53;5.10;;;9.20;99.90;;;;;;5054304;28;20560;-47
2022/11/02 07:04:41;;;;;;;7.83;4.70;;;9.30;99.90;;;;;;5053885;28;20515;-48
2022/11/02 07:07:08;;;;;;;8.80;5.00;;;9.20;99.90;;;;;;5054549;28;20442;-47
2022/11/02 07:09:37;;;;;;;9.30;4.47;;;9.20;99.90;;;;;;5053958;28;20477;-47
2022/11/02 07:12:04;;;;;;;8.60;4.50;;;9.20;99.90;;;;;;5054561;28;20438;-47
2022/11/02 07:14:30;;;;;;;7.23;5.60;;;9.10;99.90;;;;;;5053661;28;21041;-47
2022/11/02 07:16:57;;;;;;;11.80;7.83;;;9.00;99.90;;;;;;5054263;28;20452;-47
2022/11/02 07:19:24;;;;;;;11.97;8.40;;;9.10;99.90;;;;;;5054050;28;20544;-47
2022/11/02 07:21:52;;;;;;;15.83;11.67;;;8.70;99.90;;;;;;5053807;28;20799;-47
2022/11/02 07:24:19;;;;;;;11.23;9.10;;;8.40;99.90;;;;;;5053747;28;20458;-47
2022/11/02 07:26:48;;;;;;;10.07;6.77;;;8.30;99.90;;;;;;5054231;28;20865;-47
2022/11/02 07:29:15;;;;;;;12.97;7.27;;;8.30;99.90;;;;;;5054065;28;20449;-50
2022/11/02 07:31:42;;;;;;;11.87;6.43;;;8.40;99.90;;;;;;5053813;28;20489;-47
2022/11/02 07:34:09;;;;;;;8.23;6.50;;;8.50;99.90;;;;;;5053276;28;21041;-47
2022/11/02 07:36:36;;;;;;;10.30;6.07;;;8.60;99.90;;;;;;5053608;28;20450;-47
2022/11/02 07:39:05;;;;;;;9.60;6.27;;;8.90;99.90;;;;;;5053651;28;20509;-47
2022/11/02 07:41:32;;;;;;;10.70;7.90;;;9.20;99.90;;;;;;5053547;28;20433;-47
2022/11/02 07:43:59;;;;;;;16.50;11.50;;;9.40;99.90;;;;;;5053255;28;20997;-48
2022/11/02 07:46:26;;;;;;;15.73;9.80;;;9.50;99.90;;;;;;5053933;28;20828;-47
2022/11/02 07:48:53;;;;;;;13.60;10.00;;;9.60;99.90;;;;;;5053424;28;20493;-47
2022/11/02 07:51:20;;;;;;;16.00;10.60;;;9.60;99.90;;;;;;5053321;28;20568;-49
2022/11/02 07:53:46;;;;;;;19.60;9.30;;;9.00;99.90;;;;;;5053349;28;20446;-47
2022/11/02 07:56:15;;;;;;;13.23;9.13;;;8.70;99.90;;;;;;5054644;28;20472;-47
2022/11/02 07:58:41;;;;;;;15.37;9.93;;;8.70;99.90;;;;;;5053740;28;20533;-47
2022/11/02 08:01:08;;;;;;;8.97;7.13;;;8.80;99.90;;;;;;5052977;28;20545;-48
2022/11/02 08:03:35;;;;;;;10.10;7.60;;;9.00;99.90;;;;;;5052882;28;20516;-50
2022/11/02 08:06:02;;;;;;;12.73;9.60;;;9.50;99.90;;;;;;5053639;28;20469;-47
2022/11/02 08:08:29;;;;;;;13.67;10.70;;;9.70;99.90;;;;;;5053467;28;20489;-48
2022/11/02 08:11:04;;;;;;;15.10;9.00;;;9.90;99.90;;;;;;5052682;28;20499;-48
2022/11/02 08:13:32;;;;;;;11.50;8.43;;;9.90;99.90;;;;;;5052849;28;21012;-45
2022/11/02 08:15:59;;;;;;;10.53;6.80;;;9.90;99.90;;;;;;5053137;28;20549;-48
2022/11/02 08:18:27;;;;;;;10.43;7.17;;;9.70;99.90;;;;;;5052895;28;20536;-47
2022/11/02 08:20:56;;;;;;;7.83;7.00;;;9.80;99.90;;;;;;5053550;28;20522;-48
2022/11/02 08:23:23;;;;;;;13.77;7.80;;;9.90;99.90;;;;;;5052678;28;20954;-50
2022/11/02 08:25:52;;;;;;;8.10;6.30;;;10.00;99.90;;;;;;5052879;28;20501;-46
2022/11/02 08:28:21;;;;;;;8.07;6.03;;;10.00;99.90;;;;;;5052646;28;20532;-47
2022/11/02 08:30:50;;;;;;;11.27;7.63;;;10.00;99.90;;;;;;5052832;28;20565;-47
2022/11/02 08:33:18;;;;;;;9.63;6.43;;;10.00;99.90;;;;;;5052370;28;20488;-47
2022/11/02 08:35:46;;;;;;;9.60;6.93;;;10.00;99.90;;;;;;5052504;28;20985;-47
2022/11/02 08:38:13;;;;;;;12.23;8.30;;;10.10;99.90;;;;;;5052738;28;20444;-47
2022/11/02 08:40:41;;;;;;;15.97;11.53;;;10.00;99.90;;;;;;5052814;28;20521;-47
2022/11/02 08:43:10;;;;;;;22.70;17.70;;;10.00;99.90;;;;;;5052088;28;20684;-48
2022/11/02 08:45:38;;;;;;;20.03;14.80;;;9.60;99.90;;;;;;5052410;28;20496;-47
2022/11/02 08:48:07;;;;;;;14.77;10.30;;;9.40;99.90;;;;;;5052308;28;20453;-48
2022/11/02 08:50:35;;;;;;;10.57;8.83;;;9.50;99.90;;;;;;5052435;28;20552;-47
2022/11/02 08:53:03;;;;;;;13.10;8.30;;;9.70;99.90;;;;;;5052103;28;20478;-47
2022/11/02 08:55:30;;;;;;;10.03;7.70;;;10.00;99.90;;;;;;5052197;28;20482;-47
2022/11/02 08:57:58;;;;;;;8.90;7.43;;;10.10;99.90;;;;;;5052504;28;21005;-47
2022/11/02 09:00:27;;;;;;;12.73;10.53;;;10.20;99.90;;;;;;5052001;28;20522;-48
2022/11/02 09:03:02;;;;;;;14.03;10.23;;;10.20;99.90;;;;;;5051991;28;20443;-47
2022/11/02 09:05:32;;;;;;;10.30;8.70;;;10.20;99.90;;;;;;5052248;28;20461;-47
2022/11/02 09:08:01;;;;;;;12.47;8.17;;;10.20;99.90;;;;;;5052229;28;20544;-46
2022/11/02 09:10:29;;;;;;;9.23;7.03;;;10.30;99.90;;;;;;5051543;28;20886;-49
2022/11/02 09:12:56;;;;;;;9.90;7.47;;;10.40;99.90;;;;;;5051626;28;20448;-47
2022/11/02 09:15:23;;;;;;;8.13;6.97;;;10.30;99.90;;;;;;5051781;28;20462;-47
2022/11/02 09:17:50;;;;;;;12.03;6.97;;;10.40;99.90;;;;;;5051977;28;20441;-47
2022/11/02 09:20:18;;;;;;;10.00;6.97;;;10.50;99.90;;;;;;5052242;28;20499;-47
2022/11/02 09:22:47;;;;;;;7.73;5.90;;;10.40;99.90;;;;;;5051814;28;20524;-47
2022/11/02 09:25:15;;;;;;;7.50;5.57;;;10.60;99.90;;;;;;5051568;28;20473;-47
2022/11/02 09:27:42;;;;;;;10.03;6.37;;;10.70;99.90;;;;;;5051827;28;20448;-47
2022/11/02 09:30:10;;;;;;;8.33;5.10;;;10.80;99.90;;;;;;5051977;28;20443;-48
2022/11/02 09:32:38;;;;;;;8.87;6.43;;;10.90;99.90;;;;;;5051541;28;20562;-48
2022/11/02 09:35:07;;;;;;;7.90;7.10;;;11.00;99.90;;;;;;5051269;28;20901;-47
2022/11/02 09:37:34;;;;;;;7.30;6.20;;;11.10;99.90;;;;;;5051530;28;20522;-47
2022/11/02 09:40:04;;;;;;;5.60;5.00;;;11.20;99.90;;;;;;5051744;28;20511;-47
2022/11/02 09:42:39;;;;;;;5.60;4.57;;;11.20;99.90;;;;;;5051636;28;20952;-46
2022/11/02 09:45:11;;;;;;;6.23;5.63;;;11.30;99.90;;;;;;5051482;28;20502;-50
2022/11/02 09:47:45;;;;;;;5.13;4.73;;;11.50;99.90;;;;;;5051440;28;21007;-47
2022/11/02 09:50:18;;;;;;;15.67;4.83;;;11.50;99.90;;;;;;5051525;28;20531;-47
2022/11/02 09:52:47;;;;;;;11.20;3.03;;;11.50;99.90;;;;;;5051359;28;20534;-47
2022/11/02 09:55:21;;;;;;;4.50;3.30;;;11.60;99.90;;;;;;5051405;28;20526;-50
2022/11/02 09:57:53;;;;;;;6.23;3.57;;;11.60;99.90;;;;;;5051476;28;20451;-49
2022/11/02 10:00:20;;;;;;;4.80;3.40;;;11.70;99.90;;;;;;5051712;28;20529;-47
2022/11/02 10:02:55;;;;;;;6.00;3.00;;;11.70;99.90;;;;;;5051363;28;20527;-48
2022/11/02 10:05:32;;;;;;;7.03;3.53;;;11.80;99.90;;;;;;5051183;28;20552;-47
2022/11/02 10:08:15;;;;;;;6.67;3.30;;;11.80;99.90;;;;;;5051513;28;21019;-46
2022/11/02 10:10:53;;;;;;;5.17;3.60;;;11.80;99.90;;;;;;5051109;28;20545;-47
2022/11/02 10:13:33;;;;;;;6.03;3.87;;;12.00;99.90;;;;;;5050903;28;20463;-47
2022/11/02 10:16:03;;;;;;;8.23;4.50;;;12.00;99.90;;;;;;5051179;28;20468;-49
2022/11/02 10:18:31;;;;;;;5.60;3.83;;;12.00;99.90;;;;;;5051231;28;20533;-49
2022/11/02 10:21:00;;;;;;;8.90;5.13;;;12.10;99.90;;;;;;5050879;28;20522;-47
2022/11/02 10:23:32;;;;;;;8.60;4.70;;;12.10;99.90;;;;;;5051020;28;20538;-47
2022/11/02 10:26:02;;;;;;;7.07;3.47;;;12.10;99.90;;;;;;5053704;28;20477;-48
2022/11/02 10:28:33;;;;;;;6.40;4.00;;;12.20;99.90;;;;;;5055400;28;20538;-48
2022/11/02 10:31:02;;;;;;;5.90;3.00;;;12.20;99.90;;;;;;5055174;28;20810;-50
2022/11/02 10:33:30;;;;;;;7.73;4.60;;;12.20;99.90;;;;;;5054178;28;20534;-49
2022/11/02 10:36:13;;;;;;;6.93;3.70;;;12.30;99.90;;;;;;5054980;28;20463;-48
2022/11/02 10:38:49;;;;;;;7.27;3.47;;;12.30;99.90;;;;;;5054873;28;20450;-48
2022/11/02 10:41:39;;;;;;;5.07;3.23;;;12.40;99.90;;;;;;5054869;28;20535;-48
2022/11/02 10:44:22;;;;;;;4.43;2.83;;;12.40;99.90;;;;;;5054599;28;20612;-48
2022/11/02 10:46:59;;;;;;;5.10;3.37;;;12.40;99.90;;;;;;5054578;28;20481;-49
2022/11/02 10:49:46;;;;;;;6.53;3.63;;;12.60;99.90;;;;;;5054778;28;20523;-49
2022/11/02 10:52:15;;;;;;;5.30;3.43;;;12.50;99.90;;;;;;5054452;28;20476;-48
2022/11/02 10:54:42;;;;;;;4.60;3.07;;;12.50;99.90;;;;;;5054259;28;20569;-50
2022/11/02 10:57:13;;;;;;;6.30;3.50;;;12.50;99.90;;;;;;5054430;28;20894;-48
2022/11/02 10:59:40;;;;;;;7.23;5.10;;;12.70;99.90;;;;;;5054593;28;20489;-48
2022/11/02 11:02:13;;;;;;;10.27;3.60;;;12.80;99.90;;;;;;5054593;28;20479;-49
2022/11/02 11:04:41;;;;;;;5.23;3.80;;;13.00;99.90;;;;;;5054001;28;20473;-48
2022/11/02 11:07:16;;;;;;;5.97;4.10;;;13.20;99.90;;;;;;5054547;28;20529;-48
2022/11/02 11:09:50;;;;;;;8.57;4.30;;;13.20;99.90;;;;;;5054142;28;20444;-50
2022/11/02 11:12:21;;;;;;;5.37;3.60;;;13.30;99.90;;;;;;5053939;28;20999;-48
2022/11/02 11:14:51;;;;;;;16.17;11.10;;;13.40;99.90;;;;;;5051913;28;20470;-48
2022/11/02 11:17:22;;;;;;;6.23;3.57;;;13.50;99.90;;;;;;5053844;28;20442;-48
2022/11/02 11:19:51;;;;;;;3.27;2.97;;;13.60;99.90;;;;;;5054288;28;20957;-48
2022/11/02 11:22:28;;;;;;;4.87;3.63;;;13.50;99.90;;;;;;5054425;28;20444;-48
2022/11/02 11:25:20;;;;;;;12.63;4.30;;;13.50;99.90;;;;;;5053891;28;20491;-48
2022/11/02 11:27:49;;;;;;;8.03;4.03;;;13.40;99.90;;;;;;5053740;28;20946;-48
2022/11/02 11:30:25;;;;;;;5.90;3.77;;;13.60;99.90;;;;;;5053100;28;20539;-48
2022/11/02 11:32:53;;;;;;;7.30;4.47;;;13.50;99.90;;;;;;5033983;28;20481;-48
2022/11/02 11:35:21;;;;;;;5.30;4.43;;;13.50;99.90;;;;;;5033414;28;20488;-48
2022/11/02 11:37:49;;;;;;;6.77;4.40;;;13.50;99.90;;;;;;5031369;28;20495;-48
2022/11/02 11:40:19;;;;;;;7.60;4.67;;;13.50;99.90;;;;;;5032845;28;20818;-48
2022/11/02 11:42:49;;;;;;;5.70;4.50;;;13.30;99.90;;;;;;5033583;28;20473;-48
2022/11/02 11:45:21;;;;;;;6.03;5.37;;;13.50;99.90;;;;;;5033828;28;20910;-48
2022/11/02 11:47:52;;;;;;;5.03;3.80;;;13.50;99.90;;;;;;5033656;28;20445;-48
2022/11/02 11:50:19;;;;;;;7.13;4.27;;;13.60;99.90;;;;;;5032580;28;20872;-48
2022/11/02 11:52:46;;;;;;;18.30;4.70;;;13.60;99.90;;;;;;5032823;28;20576;-49
2022/11/02 11:55:23;;;;;;;9.60;5.33;;;13.60;99.90;;;;;;5032554;28;20473;-48
2022/11/02 12:00:43;;;;;;;4.93;3.83;;;13.80;99.90;;;;;;5129306;27;21322;-47
2022/11/02 12:03:12;;;;;;;6.13;3.80;;;13.70;99.90;;;;;;5128829;28;20531;-50
2022/11/02 12:06:01;;;;;;;5.17;4.10;;;13.70;99.90;;;;;;5129358;28;20985;-48
2022/11/02 12:08:44;;;;;;;33.40;6.50;;;13.70;99.90;;;;;;5129818;27;20524;-47
2022/11/02 12:11:26;;;;;;;10.47;4.37;;;13.80;99.90;;;;;;5129731;27;20517;-48
2022/11/02 12:14:10;;;;;;;6.37;4.20;;;13.70;99.90;;;;;;5128988;27;20962;-49
2022/11/02 12:16:58;;;;;;;142.67;33.23;;;13.70;99.90;;;;;;5128137;27;20441;-50
2022/11/02 12:19:33;;;;;;;11.07;5.13;;;13.70;99.90;;;;;;5128780;27;21216;-47
2022/11/02 12:22:09;;;;;;;8.53;4.83;;;13.70;99.90;;;;;;5128916;27;20488;-47
2022/11/02 12:25:04;;;;;;;5.30;4.80;;;13.70;99.90;;;;;;5128544;27;20461;-47
2022/11/02 12:27:40;;;;;;;9.47;5.77;;;13.70;99.90;;;;;;5129136;27;20466;-47
2022/11/02 12:30:15;;;;;;;8.33;6.10;;;13.80;99.90;;;;;;5129306;27;20441;-48
2022/11/02 12:33:03;;;;;;;10.30;5.70;;;13.70;99.90;;;;;;5129086;27;20450;-48
2022/11/02 12:35:54;;;;;;;10.17;4.90;;;13.80;99.90;;;;;;5128513;27;20467;-50
2022/11/02 12:39:07;;;;;;;9.20;5.27;;;13.80;99.90;;;;;;5129134;27;20441;-49
2022/11/02 12:41:46;;;;;;;9.30;6.10;;;13.80;99.90;;;;;;5065442;28;20516;-48
2022/11/02 12:44:38;;;;;;;6.77;5.37;;;14.00;99.90;;;;;;5065266;28;20920;-48
2022/11/02 12:47:21;;;;;;;5.57;4.70;;;14.00;99.90;;;;;;5113763;27;20537;-48
2022/11/02 12:50:01;;;;;;;6.47;5.23;;;14.00;99.90;;;;;;5128992;27;21023;-48
2022/11/02 12:52:39;;;;;;;7.73;5.20;;;14.00;99.90;;;;;;5128929;27;20997;-48
2022/11/02 12:55:14;;;;;;;8.70;4.90;;;14.00;99.90;;;;;;5128650;27;20545;-47
2022/11/02 12:57:41;;;;;;;5.57;4.83;;;14.00;99.90;;;;;;5128841;27;20472;-48
2022/11/02 13:00:17;;;;;;;7.23;5.57;;;14.10;99.90;;;;;;5128129;27;20575;-48
2022/11/02 13:02:54;;;;;;;9.80;6.30;;;14.20;99.90;;;;;;5128735;27;20442;-48
2022/11/02 13:05:25;;;;;;;7.73;4.67;;;14.20;99.90;;;;;;5128451;27;20573;-48
2022/11/02 13:08:02;;;;;;;8.10;5.10;;;14.10;99.90;;;;;;5128575;27;20446;-49
2022/11/02 13:10:33;;;;;;;7.53;5.40;;;14.10;99.90;;;;;;5123764;27;21018;-48
2022/11/02 13:13:03;;;;;;;7.60;4.63;;;14.20;99.90;;;;;;5114472;28;21022;-48
2022/11/02 13:15:34;;;;;;;6.53;4.90;;;14.20;99.90;;;;;;5114649;28;20463;-48
2022/11/02 13:18:05;;;;;;;13.93;5.00;;;14.20;99.90;;;;;;5114767;28;20446;-49